createdAt,value
2023-04-02T00:02:21.812Z,20.88
2023-04-02T00:05:31.694Z,11.18
2023-04-02T00:08:41.032Z,21.30
2023-04-02T00:11:37.443Z,19.40
2023-04-02T00:14:25.072Z,15.20
2023-04-02T00:17:10.927Z,17.00
2023-04-02T00:20:07.410Z,18.35
2023-04-02T00:22:55.661Z,19.75
2023-04-02T00:25:49.620Z,17.98
2023-04-02T00:28:35.361Z,22.52
2023-04-02T00:31:21.576Z,17.70
2023-04-02T00:34:13.600Z,19.30
2023-04-02T00:36:59.583Z,18.73
2023-04-02T00:39:48.864Z,19.17
2023-04-02T00:42:35.895Z,17.70
2023-04-02T00:45:21.688Z,15.70
2023-04-02T00:48:39.841Z,20.55
2023-04-02T00:51:35.423Z,17.20
2023-04-02T00:54:26.209Z,13.82
2023-04-02T00:57:18.164Z,15.95
2023-04-02T01:00:21.961Z,18.42
2023-04-02T01:03:16.815Z,16.45
2023-04-02T01:09:15.252Z,17.92
2023-04-02T01:12:08.347Z,15.05
2023-04-02T01:14:58.939Z,20.08
2023-04-02T01:17:59.400Z,17.33
2023-04-02T01:21:07.144Z,13.30
2023-04-02T01:24:10.792Z,12.98
2023-04-02T01:26:58.761Z,13.73
2023-04-02T01:29:51.925Z,14.40
2023-04-02T01:32:37.873Z,15.23
2023-04-02T01:35:26.070Z,13.65
2023-04-02T01:38:18.946Z,15.63
2023-04-02T01:41:45.271Z,15.05
2023-04-02T01:47:33.332Z,15.20
2023-04-02T01:50:31.672Z,13.95
2023-04-02T01:53:24.417Z,11.98
2023-04-02T01:56:11.368Z,15.82
2023-04-02T01:58:58.674Z,13.00
2023-04-02T02:01:58.861Z,17.02
2023-04-02T02:04:44.692Z,14.15
2023-04-02T02:07:30.814Z,20.70
2023-04-02T02:10:23.433Z,16.30
2023-04-02T02:13:14.875Z,16.55
2023-04-02T02:16:02.068Z,14.35
2023-04-02T02:19:11.607Z,11.90
2023-04-02T02:22:37.705Z,12.13
2023-04-02T02:25:31.089Z,14.88
2023-04-02T02:28:33.808Z,12.80
2023-04-02T02:31:29.572Z,13.15
2023-04-02T02:34:25.878Z,11.90
2023-04-02T02:37:19.100Z,16.52
2023-04-02T02:40:11.700Z,12.13
2023-04-02T02:43:01.616Z,13.50
2023-04-02T02:45:48.887Z,11.50
2023-04-02T02:48:38.555Z,15.52
2023-04-02T02:51:32.289Z,14.18
2023-04-02T02:54:21.606Z,13.95
2023-04-02T02:57:14.332Z,16.10
2023-04-02T03:00:01.668Z,15.23
2023-04-02T03:02:50.026Z,13.95
2023-04-02T03:05:39.200Z,13.13
2023-04-02T03:09:01.748Z,16.88
2023-04-02T03:12:04.013Z,16.00
2023-04-02T03:15:02.921Z,14.88
2023-04-02T03:18:00.732Z,14.40
2023-04-02T03:20:58.333Z,13.63
2023-04-02T03:23:53.405Z,18.30
2023-04-02T03:26:43.615Z,12.45
2023-04-02T03:29:32.177Z,14.65
2023-04-02T03:32:23.408Z,12.10
2023-04-02T03:35:31.002Z,16.23
2023-04-02T03:38:22.757Z,12.77
2023-04-02T03:41:35.009Z,13.05
2023-04-02T03:44:27.737Z,11.43
2023-04-02T03:47:28.294Z,12.05
2023-04-02T03:50:40.478Z,16.90
2023-04-02T03:53:32.304Z,13.63
2023-04-02T03:56:42.558Z,14.43
2023-04-02T03:59:47.356Z,10.95
2023-04-02T04:02:52.799Z,13.68
2023-04-02T04:06:02.168Z,12.82
2023-04-02T04:08:58.012Z,11.65
2023-04-02T04:12:01.278Z,13.20
2023-04-02T04:15:17.077Z,11.02
2023-04-02T04:18:24.473Z,11.18
2023-04-02T04:21:37.154Z,13.25
2023-04-02T04:24:32.595Z,13.32
2023-04-02T04:27:34.805Z,14.13
2023-04-02T04:30:42.586Z,11.98
2023-04-02T04:33:39.905Z,12.50
2023-04-02T04:36:30.708Z,9.40
2023-04-02T04:39:35.864Z,15.00
2023-04-02T04:42:27.633Z,11.02
2023-04-02T04:45:46.713Z,11.30
2023-04-02T04:48:59.236Z,13.38
2023-04-02T04:52:01.009Z,12.32
2023-04-02T04:54:47.795Z,13.15
2023-04-02T04:57:39.886Z,12.55
2023-04-02T05:00:58.710Z,13.32
2023-04-02T05:04:28.375Z,13.43
2023-04-02T05:07:29.398Z,13.20
2023-04-02T05:10:48.175Z,11.35
2023-04-02T05:13:54.413Z,12.57
2023-04-02T05:16:53.245Z,11.63
2023-04-02T05:19:50.618Z,10.85
2023-04-02T05:22:48.689Z,9.55
2023-04-02T05:25:36.825Z,12.25
2023-04-02T05:28:52.711Z,9.85
2023-04-02T05:31:46.710Z,12.25
2023-04-02T05:34:37.376Z,14.73
2023-04-02T05:37:28.296Z,13.73
2023-04-02T05:40:36.400Z,13.65
2023-04-02T05:43:30.218Z,11.27
2023-04-02T05:46:25.781Z,12.93
2023-04-02T05:49:42.276Z,9.48
2023-04-02T05:52:34.712Z,11.77
2023-04-02T05:55:30.321Z,11.27
2023-04-02T05:58:36.159Z,12.98
2023-04-02T06:01:51.456Z,10.40
2023-04-02T06:05:06.275Z,13.02
2023-04-02T06:07:57.947Z,9.57
2023-04-02T06:11:06.491Z,16.92
2023-04-02T06:13:53.744Z,12.75
2023-04-02T06:16:45.905Z,15.07
2023-04-02T06:19:37.447Z,11.55
2023-04-02T06:22:36.842Z,9.98
2023-04-02T06:25:44.730Z,9.32
2023-04-02T06:28:53.211Z,10.90
2023-04-02T06:31:58.472Z,9.43
2023-04-02T06:34:45.433Z,12.10
2023-04-02T06:37:40.713Z,10.73
2023-04-02T06:40:39.618Z,12.95
2023-04-02T06:43:38.603Z,11.70
2023-04-02T06:46:47.213Z,7.00
2023-04-02T06:49:51.334Z,11.10
2023-04-02T06:52:47.437Z,10.43
2023-04-02T06:55:54.417Z,10.93
2023-04-02T06:58:44.380Z,14.27
2023-04-02T07:01:33.012Z,12.98
2023-04-02T07:04:21.944Z,9.13
2023-04-02T07:07:09.922Z,13.38
2023-04-02T07:09:58.894Z,8.80
2023-04-02T07:12:44.566Z,9.13
2023-04-02T07:15:30.085Z,9.13
2023-04-02T07:18:29.764Z,8.45
2023-04-02T07:21:16.057Z,15.02
2023-04-02T07:24:01.345Z,12.93
2023-04-02T07:26:50.345Z,8.77
2023-04-02T07:29:35.820Z,9.43
2023-04-02T07:32:21.188Z,8.55
2023-04-02T07:35:07.823Z,8.32
2023-04-02T07:37:53.581Z,8.30
2023-04-02T07:40:39.179Z,7.00
2023-04-02T07:43:27.298Z,9.63
2023-04-02T07:46:20.625Z,12.50
2023-04-02T07:49:05.983Z,9.85
2023-04-02T07:51:52.326Z,9.27
2023-04-02T07:54:38.233Z,8.48
2023-04-02T07:57:27.463Z,6.63
2023-04-02T08:00:13.717Z,9.95
2023-04-02T08:02:59.119Z,6.03
2023-04-02T08:05:51.344Z,7.70
2023-04-02T08:08:36.625Z,7.20
2023-04-02T08:11:22.106Z,9.15
2023-04-02T08:14:11.351Z,9.05
2023-04-02T08:16:57.381Z,7.18
2023-04-02T08:19:54.214Z,10.65
2023-04-02T08:22:40.302Z,6.72
2023-04-02T08:25:27.460Z,7.50
2023-04-02T08:28:13.771Z,5.65
2023-04-02T08:30:59.647Z,10.32
2023-04-02T08:33:45.035Z,7.05
2023-04-02T08:36:35.695Z,10.60
2023-04-02T08:39:21.517Z,8.00
2023-04-02T08:42:18.840Z,7.15
2023-04-02T08:45:42.374Z,12.20
2023-04-02T08:48:31.416Z,6.57
2023-04-02T08:51:30.939Z,5.55
2023-04-02T08:54:29.678Z,6.22
2023-04-02T08:57:43.546Z,8.20
2023-04-02T09:00:44.679Z,5.68
2023-04-02T09:03:44.517Z,8.98
2023-04-02T09:06:30.319Z,8.30
2023-04-02T09:09:16.758Z,7.90
2023-04-02T09:12:04.621Z,8.57
2023-04-02T09:14:59.056Z,6.15
2023-04-02T09:17:53.676Z,10.55
2023-04-02T09:23:27.445Z,7.15
2023-04-02T09:26:25.330Z,7.13
2023-04-02T09:29:14.090Z,6.97
2023-04-02T09:32:13.189Z,6.97
2023-04-02T09:35:39.590Z,5.28
2023-04-02T09:38:30.721Z,6.95
2023-04-02T09:41:20.972Z,8.45
2023-04-02T09:47:32.317Z,12.00
2023-04-02T09:50:22.995Z,7.50
2023-04-02T09:53:30.945Z,13.18
2023-04-02T09:56:24.941Z,10.10
2023-04-02T09:59:13.524Z,10.90
2023-04-02T10:02:01.996Z,5.50
2023-04-02T10:04:49.593Z,11.70
2023-04-02T10:07:44.118Z,6.18
2023-04-02T10:10:41.886Z,9.77
2023-04-02T10:13:43.174Z,8.45
2023-04-02T10:16:37.510Z,5.55
2023-04-02T10:19:37.572Z,5.18
2023-04-02T10:22:23.756Z,10.18
2023-04-02T10:25:17.219Z,9.63
2023-04-02T10:28:13.102Z,5.00
2023-04-02T10:31:09.040Z,8.55
2023-04-02T10:34:06.539Z,10.52
2023-04-02T10:36:59.048Z,12.63
2023-04-02T10:39:49.848Z,7.65
2023-04-02T10:42:49.415Z,7.80
2023-04-02T10:45:46.429Z,7.75
2023-04-02T10:48:48.848Z,7.60
2023-04-02T10:51:46.200Z,10.60
2023-04-02T10:54:38.710Z,10.02
2023-04-02T10:57:33.606Z,8.90
2023-04-02T11:00:25.926Z,10.23
2023-04-02T11:03:25.004Z,9.52
2023-04-02T11:06:31.320Z,4.53
2023-04-02T11:09:26.772Z,3.95
2023-04-02T11:12:20.110Z,6.13
2023-04-02T11:15:15.155Z,4.30
2023-04-02T11:21:04.627Z,6.25
2023-04-02T11:24:03.325Z,4.10
2023-04-02T11:26:49.506Z,4.03
2023-04-02T11:29:56.845Z,6.53
2023-04-02T11:32:47.253Z,5.97
2023-04-02T11:35:34.939Z,8.90
2023-04-02T11:38:23.401Z,5.88
2023-04-02T11:41:16.837Z,3.22
2023-04-02T11:44:02.725Z,9.07
2023-04-02T11:46:48.234Z,7.70
2023-04-02T11:49:56.485Z,8.25
2023-04-02T11:52:47.849Z,8.57
2023-04-02T11:55:35.163Z,4.30
2023-04-02T11:58:41.909Z,6.63
2023-04-02T12:01:50.504Z,6.60
2023-04-02T12:04:57.184Z,5.70
2023-04-02T12:08:05.206Z,3.70
2023-04-02T12:11:01.307Z,4.32
2023-04-02T12:13:48.317Z,5.43
2023-04-02T12:16:42.030Z,5.45
2023-04-02T12:19:30.536Z,7.13
2023-04-02T12:22:25.116Z,5.55
2023-04-02T12:25:33.247Z,5.85
2023-04-02T12:28:19.568Z,4.00
2023-04-02T12:31:17.633Z,3.03
2023-04-02T12:34:03.095Z,5.45
2023-04-02T12:37:02.658Z,5.45
2023-04-02T12:39:54.185Z,7.85
2023-04-02T12:42:40.786Z,4.32
2023-04-02T12:45:36.616Z,4.53
2023-04-02T12:48:22.780Z,5.55
2023-04-02T12:51:10.057Z,3.83
2023-04-02T12:53:57.206Z,2.95
2023-04-02T12:56:45.534Z,5.60
2023-04-02T12:59:39.798Z,2.80
2023-04-02T13:02:27.831Z,3.67
2023-04-02T13:05:13.737Z,5.07
2023-04-02T13:11:03.868Z,5.35
2023-04-02T13:13:50.627Z,3.78
2023-04-02T13:16:41.022Z,5.95
2023-04-02T13:19:36.206Z,4.47
2023-04-02T13:22:31.551Z,3.95
2023-04-02T13:25:16.863Z,3.33
2023-04-02T13:28:03.011Z,5.32
2023-04-02T13:30:49.003Z,5.25
2023-04-02T13:33:40.067Z,5.65
2023-04-02T13:36:26.317Z,7.32
2023-04-02T13:39:11.616Z,4.93
2023-04-02T13:42:02.570Z,4.25
2023-04-02T13:44:48.139Z,6.03
2023-04-02T13:47:33.603Z,3.45
2023-04-02T13:50:22.316Z,5.22
2023-04-02T13:53:13.285Z,6.25
2023-04-02T13:55:59.033Z,3.80
2023-04-02T13:58:48.988Z,3.28
2023-04-02T14:01:35.708Z,4.32
2023-04-02T14:04:27.280Z,2.33
2023-04-02T14:07:37.739Z,3.55
2023-04-02T14:10:37.145Z,6.03
2023-04-02T14:13:22.637Z,5.03
2023-04-02T14:16:32.934Z,5.60
2023-04-02T14:19:33.124Z,5.10
2023-04-02T14:22:44.897Z,4.57
2023-04-02T14:25:51.908Z,5.13
2023-04-02T14:29:01.683Z,3.78
2023-04-02T14:31:53.822Z,4.82
2023-04-02T14:35:20.774Z,5.57
2023-04-02T14:38:36.726Z,5.13
2023-04-02T14:41:49.580Z,3.45
2023-04-02T14:44:44.565Z,4.68
2023-04-02T14:47:36.637Z,7.13
2023-04-02T14:50:29.031Z,4.07
2023-04-02T14:53:29.038Z,5.05
2023-04-02T14:56:17.932Z,1.88
2023-04-02T14:59:29.085Z,3.80
2023-04-02T15:02:38.415Z,2.75
2023-04-02T15:05:42.456Z,4.25
2023-04-02T15:08:34.893Z,4.22
2023-04-02T15:11:48.066Z,3.22
2023-04-02T15:14:38.635Z,4.15
2023-04-02T15:17:25.725Z,3.85
2023-04-02T15:20:16.962Z,5.03
2023-04-02T15:23:18.638Z,4.60
2023-04-02T15:26:18.725Z,3.35
2023-04-02T15:29:25.893Z,3.20
2023-04-02T15:32:35.002Z,3.47
2023-04-02T15:35:39.436Z,3.47
2023-04-02T15:38:38.005Z,3.72
2023-04-02T15:41:27.531Z,7.20
2023-04-02T15:44:17.063Z,3.90
2023-04-02T15:47:46.464Z,3.75
2023-04-02T15:50:54.622Z,3.63
2023-04-02T15:53:55.835Z,7.70
2023-04-02T15:57:16.450Z,3.72
2023-04-02T16:00:23.092Z,5.73
2023-04-02T16:03:20.935Z,5.15
2023-04-02T16:06:17.110Z,4.68
2023-04-02T16:09:28.184Z,4.85
2023-04-02T16:12:19.502Z,4.13
2023-04-02T16:15:30.627Z,3.50
2023-04-02T16:18:44.258Z,4.90
2023-04-02T16:21:35.526Z,4.53
2023-04-02T16:24:23.485Z,4.53
2023-04-02T16:27:31.636Z,4.15
2023-04-02T16:30:49.090Z,4.38
2023-04-02T16:33:34.782Z,5.00
2023-04-02T16:36:33.655Z,4.20
2023-04-02T16:39:39.172Z,6.03
2023-04-02T16:42:51.555Z,3.45
2023-04-02T16:46:11.929Z,3.53
2023-04-02T16:49:24.663Z,4.78
2023-04-02T16:52:29.578Z,4.97
2023-04-02T16:55:34.756Z,3.60
2023-04-02T16:58:49.315Z,4.43
2023-04-02T17:01:54.760Z,7.03
2023-04-02T17:04:55.900Z,3.92
2023-04-02T17:08:05.864Z,3.00
2023-04-02T17:10:53.980Z,3.33
2023-04-02T17:13:55.187Z,3.25
2023-04-02T17:16:50.459Z,3.88
2023-04-02T17:19:35.907Z,4.35
2023-04-02T17:22:23.452Z,6.40
2023-04-02T17:25:19.126Z,3.58
2023-04-02T17:28:12.539Z,3.55
2023-04-02T17:31:00.789Z,2.97
2023-04-02T17:33:53.809Z,5.63
2023-04-02T17:36:48.952Z,4.97
2023-04-02T17:40:01.386Z,4.45
2023-04-02T17:43:01.500Z,4.70
2023-04-02T17:45:55.415Z,5.13
2023-04-02T17:48:46.313Z,3.40
2023-04-02T17:51:59.604Z,3.75
2023-04-02T17:55:07.214Z,5.07
2023-04-02T17:58:01.350Z,4.60
2023-04-02T18:01:12.193Z,3.97
2023-04-02T18:04:21.962Z,4.72
2023-04-02T18:07:16.422Z,5.47
2023-04-02T18:10:15.284Z,7.43
2023-04-02T18:13:24.133Z,6.75
2023-04-02T18:16:38.494Z,5.68
2023-04-02T18:19:46.343Z,5.55
2023-04-02T18:22:34.924Z,14.93
2023-04-02T18:25:32.528Z,7.35
2023-04-02T18:28:32.731Z,3.10
2023-04-02T18:31:50.412Z,5.07
2023-04-02T18:34:54.102Z,7.50
2023-04-02T18:37:48.151Z,7.85
2023-04-02T18:41:09.300Z,6.93
2023-04-02T18:43:55.845Z,3.75
2023-04-02T18:46:56.613Z,4.35
2023-04-02T18:49:52.036Z,7.13
2023-04-02T18:52:39.577Z,7.68
2023-04-02T18:55:29.012Z,8.88
2023-04-02T18:58:43.105Z,6.28
2023-04-02T19:01:52.212Z,7.57
2023-04-02T19:04:39.664Z,7.15
2023-04-02T19:07:30.172Z,7.75
2023-04-02T19:10:53.420Z,9.35
2023-04-02T19:13:39.045Z,7.88
2023-04-02T19:16:53.468Z,7.15
2023-04-02T19:20:25.529Z,8.85
2023-04-02T19:23:22.788Z,6.15
2023-04-02T19:26:17.573Z,8.05
2023-04-02T19:32:11.344Z,6.30
2023-04-02T19:35:23.027Z,15.48
2023-04-02T19:38:27.066Z,10.57
2023-04-02T19:41:42.207Z,6.60
2023-04-02T19:44:27.991Z,5.95
2023-04-02T19:47:14.760Z,6.18
2023-04-02T19:50:00.434Z,9.50
2023-04-02T19:52:45.941Z,7.15
2023-04-02T19:55:31.346Z,6.78
2023-04-02T19:58:28.688Z,7.13
2023-04-02T20:01:14.771Z,6.88
2023-04-02T20:04:00.659Z,6.75
2023-04-02T20:06:46.033Z,6.70
2023-04-02T20:09:31.667Z,8.20
2023-04-02T20:12:17.515Z,6.60
2023-04-02T20:15:04.319Z,9.02
2023-04-02T20:17:49.754Z,5.20
2023-04-02T20:20:35.610Z,6.28
2023-04-02T20:23:21.509Z,6.10
2023-04-02T20:26:07.833Z,6.15
2023-04-02T20:28:53.152Z,11.02
2023-04-02T20:31:38.775Z,6.90
2023-04-02T20:34:24.788Z,4.50
2023-04-02T20:37:10.449Z,3.13
2023-04-02T20:39:57.739Z,6.97
2023-04-02T20:42:46.030Z,4.95
2023-04-02T20:45:31.505Z,23.25
2023-04-02T20:48:17.029Z,5.53
2023-04-02T20:51:07.399Z,6.32
2023-04-02T20:53:53.931Z,10.02
2023-04-02T20:56:39.852Z,6.85
2023-04-02T20:59:25.695Z,4.53
2023-04-02T21:02:12.301Z,4.85
2023-04-02T21:04:57.713Z,8.82
2023-04-02T21:07:44.070Z,5.43
2023-04-02T21:10:31.217Z,7.15
2023-04-02T21:13:16.953Z,4.90
2023-04-02T21:16:05.144Z,5.45
2023-04-02T21:18:52.739Z,6.85
2023-04-02T21:21:41.380Z,8.93
2023-04-02T21:24:26.944Z,3.17
2023-04-02T21:27:12.558Z,8.75
2023-04-02T21:29:57.784Z,4.88
2023-04-02T21:32:43.610Z,3.55
2023-04-02T21:35:28.867Z,4.57
2023-04-02T21:38:14.304Z,5.95
2023-04-02T21:41:13.399Z,5.78
2023-04-02T21:44:00.344Z,4.03
2023-04-02T21:46:46.058Z,3.47
2023-04-02T21:49:31.517Z,7.25
2023-04-02T21:52:17.158Z,5.55
2023-04-02T21:55:02.740Z,4.55
2023-04-02T21:57:48.578Z,5.90
2023-04-02T22:00:37.098Z,4.50
2023-04-02T22:03:30.920Z,6.00
2023-04-02T22:06:21.655Z,3.50
2023-04-02T22:09:13.338Z,3.20
2023-04-02T22:11:59.031Z,4.43
2023-04-02T22:14:44.947Z,3.97
2023-04-02T22:17:30.386Z,5.55
2023-04-02T22:20:21.479Z,3.95
2023-04-02T22:23:10.804Z,5.25
2023-04-02T22:25:58.157Z,7.47
2023-04-02T22:28:43.758Z,6.65
2023-04-02T22:31:31.281Z,3.35
2023-04-02T22:34:17.282Z,2.47
2023-04-02T22:37:02.557Z,7.13
2023-04-02T22:39:48.502Z,5.13
2023-04-02T22:42:34.608Z,6.25
2023-04-02T22:45:21.483Z,2.97
2023-04-02T22:48:09.945Z,3.67
2023-04-02T22:50:55.796Z,5.93
2023-04-02T22:53:42.858Z,5.38
2023-04-02T22:56:32.296Z,4.80
2023-04-02T22:59:17.864Z,4.50
2023-04-02T23:02:03.565Z,4.18
2023-04-02T23:04:49.046Z,6.55
2023-04-02T23:07:38.191Z,4.32
2023-04-02T23:10:24.133Z,2.97
2023-04-02T23:13:16.063Z,4.72
2023-04-02T23:16:02.913Z,4.57
2023-04-02T23:18:49.007Z,6.70
2023-04-02T23:21:34.450Z,3.85
2023-04-02T23:24:20.209Z,5.10
2023-04-02T23:27:05.494Z,6.65
2023-04-02T23:29:52.157Z,5.85
2023-04-02T23:32:37.735Z,6.13
2023-04-02T23:35:23.287Z,6.50
2023-04-02T23:38:08.784Z,7.18
2023-04-02T23:40:54.443Z,5.32
2023-04-02T23:43:40.541Z,2.70
2023-04-02T23:46:26.757Z,6.00
2023-04-02T23:49:15.513Z,5.30
2023-04-02T23:52:00.713Z,7.15
2023-04-02T23:54:46.271Z,3.92
2023-04-02T23:57:31.608Z,3.90
